Terminal Aerodrome Forecast
Issued by NWS

Home | Current Version | Previous Version | Text Only | Print | Product List | Glossary On
Versions: 1 2 3 4 5 6 7 8 9 10 11 12 13 14 15 16 17 18 19 20 21 22 23 24 25 26 27 28 29
000
FTUS43 KAPX 210900 AAB
TAFPLN
TAF AMD
KPLN 210940Z 2110/2206 VRB03KT 5SM BR VCSH BKN050
     FM211500 12004KT 3SM -SHRA BR OVC008
     FM212000 34004KT 5SM -SHRA BR OVC008=

USA.gov is the U.S. government's official web portal to all federal, state and local government web resources and services.